Lowest pressure

Not for real navigation. The accuracy of this data is not assured See disclaimer for more information



ICAO NAME COUNTRY WIND Kt GUST Kt VIS m TEMP/DEW C BARO METAR
EGPL Benbecula United Kingdom 26 0 9999 7/4 28.70 EGPL 240450Z AUTO 17026KT 9999 -RA FEW005/// BKN024/// BKN045/// 07/04 Q0972 RERA
EGPO Stornoway United Kingdom 17 0 4300 5/4 28.79 EGPO 240450Z AUTO 12017KT 4300 RA BKN003/// OVC028/// 05/04 Q0975
EGPU Tiree United Kingdom 0 0 9999 9/5 28.82 EGPU 240420Z AUTO /////KT 9999 NCD 09/05 Q0976 RERA
EKVG Soervaag / Vagar Denmark 10 0 9999 5/2 28.91 EKVG 240450Z AUTO 20010KT 9999NDV BKN023/// 05/02 Q0979 RMK BKN019/// BKN140/// WIND 850FT 21010KT 1
ENDR Draugen Norway 31 0 9999 5/4 28.97 ENDR 240450Z AUTO 27031KT 05/04 Q0981

Show more